Aérodrome :
LOGIN :

S'inscrire | Disclaimer

   EN    FR    IT 

 










Légende :    VFR   VFR Marginal   IFR   IFR Intensif   IFR Très Intensif
Visi : 
Plafond : 
>= 8 km
>= 3000ft
5 à 8 km
1000 à 3000 ft
1500m à 5 km
500 à 1000 ft
800 à 1500m
200 à 500 ft
< 800m
< 200 ft
Symboles :   Orages  Brouillard  Fortes neiges  Fortes précipitations  Vent > 20 kt
SIGMETs :   Divers  Orages  Givrage  Turbulence  Onde Orograph.  Cendres Volcan.






- Altitude de l'aérodrome : 1234 ft
- Code IATA : LUX


ELLX - Luxembourg Findel

DERNIER METAR :
  • 010520Z 27009KT 1500 BR BKN001 01/00 Q1014 NOSIG

METARs EXPIRÉS :
  • 010450Z 26009KT 0250 R24/0750V1000N FG BKN000 00/00 Q1014 NOSIG
  • 010420Z AUTO 24006KT 0200 R24/0600N -SN FG VV000 00/00 Q1014 NOSIG
  • 010350Z 24007KT 0200 R24/0750N FG BKN001 00/00 Q1014 NOSIG
  • 010320Z AUTO 25009KT 0550 R24/1200V1500D FG VV000 00/M00 Q1014 NOSIG
  • 010250Z 24009KT 1200 R24/P2000N BR BKN001 00/M00 Q1014 NOSIG

TAF TAF ELLX
Valide du 01 à 06h jusqu'au 02 à 12h UTC


010500Z 0106/0212 24005KT 2000 BR BKN004
TEMPO 0106/0108 0500 FG -SN VV001
BECMG 0106/0108 32008KT 9999 BKN012
TEMPO 0107/0120 3000 RA OVC006
BECMG 0120/0122 0700 FG VV001
ATIS : +352 4798 27300
Météo : +352 4798 27010 / 27050



MET'MAP, la Météo Aéronautique d'un coup d'oeil ! - Copyright ORBIFLY Décembre 2007 - Disclaimer

ORBIFLY MET'MAP TEAM :

Programmation & Développement : Alexandra Zaïnal
Sur une idée originale de : Baudouin d'Aumeries
Assistance à la programmation : Marc-Olivier Méhu
Soutien technique & logistique : Manuel Goepfert

Contact : metmap@orbifly.com




SOURCES & CREDITS :

   NOAA